createdAt,value
2023-04-16T00:02:04.934Z,3.87
2023-04-16T00:04:32.098Z,4.70
2023-04-16T00:06:59.078Z,4.13
2023-04-16T00:09:26.152Z,3.73
2023-04-16T00:11:53.150Z,3.77
2023-04-16T00:14:20.279Z,4.47
2023-04-16T00:16:47.357Z,4.40
2023-04-16T00:19:14.431Z,4.70
2023-04-16T00:21:41.450Z,4.00
2023-04-16T00:24:08.569Z,3.97
2023-04-16T00:26:35.550Z,4.00
2023-04-16T00:29:02.638Z,3.80
2023-04-16T00:31:32.456Z,4.90
2023-04-16T00:34:00.131Z,4.00
2023-04-16T00:36:28.443Z,4.27
2023-04-16T00:38:56.681Z,4.13
2023-04-16T00:41:23.937Z,3.90
2023-04-16T00:44:11.353Z,3.96
2023-04-16T00:46:48.927Z,3.83
2023-04-16T00:49:16.141Z,4.00
2023-04-16T00:51:43.309Z,3.97
2023-04-16T00:54:10.660Z,4.27
2023-04-16T00:56:37.933Z,4.20
2023-04-16T00:59:05.522Z,4.03
2023-04-16T01:01:32.553Z,3.97
2023-04-16T01:03:59.720Z,4.63
2023-04-16T01:06:26.841Z,5.93
2023-04-16T01:08:53.910Z,4.13
2023-04-16T01:11:21.185Z,4.00
2023-04-16T01:13:48.192Z,3.63
2023-04-16T01:16:15.499Z,4.40
2023-04-16T01:18:42.546Z,3.93
2023-04-16T01:21:09.817Z,4.87
2023-04-16T01:23:36.829Z,4.17
2023-04-16T01:26:03.884Z,5.23
2023-04-16T01:28:30.959Z,5.30
2023-04-16T01:30:58.164Z,5.53
2023-04-16T01:33:25.196Z,5.33
2023-04-16T01:35:52.206Z,4.57
2023-04-16T01:38:19.176Z,5.13
2023-04-16T01:40:46.191Z,4.47
2023-04-16T01:43:13.206Z,4.50
2023-04-16T01:45:40.425Z,4.53
2023-04-16T01:48:08.529Z,4.30
2023-04-16T01:50:35.608Z,5.10
2023-04-16T01:53:05.050Z,4.53
2023-04-16T01:55:34.067Z,3.80
2023-04-16T01:58:01.050Z,4.40
2023-04-16T02:00:28.139Z,3.73
2023-04-16T02:02:55.403Z,4.77
2023-04-16T02:05:22.513Z,4.37
2023-04-16T02:07:49.579Z,4.20
2023-04-16T02:10:16.647Z,4.30
2023-04-16T02:12:43.616Z,3.67
2023-04-16T02:15:11.242Z,4.00
2023-04-16T02:17:38.253Z,4.50
2023-04-16T02:20:08.254Z,4.40
2023-04-16T02:22:35.575Z,4.00
2023-04-16T02:25:02.544Z,4.00
2023-04-16T02:27:29.559Z,4.03
2023-04-16T02:29:56.583Z,4.50
2023-04-16T02:32:23.690Z,3.60
2023-04-16T02:34:50.958Z,3.97
2023-04-16T02:37:17.961Z,4.27
2023-04-16T02:39:45.168Z,4.73
2023-04-16T02:42:12.165Z,4.43
2023-04-16T02:44:39.149Z,4.20
2023-04-16T02:47:06.105Z,4.57
2023-04-16T02:49:33.213Z,4.30
2023-04-16T02:52:00.289Z,3.97
2023-04-16T02:54:27.285Z,4.10
2023-04-16T02:56:54.292Z,3.63
2023-04-16T02:59:21.274Z,4.10
2023-04-16T03:01:48.440Z,4.10
2023-04-16T03:04:15.868Z,4.27
2023-04-16T03:06:42.925Z,4.57
2023-04-16T03:09:10.090Z,5.00
2023-04-16T03:11:37.251Z,4.63
2023-04-16T03:14:04.351Z,4.80
2023-04-16T03:16:31.483Z,4.53
2023-04-16T03:18:58.462Z,5.13
2023-04-16T03:21:25.912Z,6.23
2023-04-16T03:23:53.963Z,5.20
2023-04-16T03:26:20.931Z,5.00
2023-04-16T03:28:47.949Z,5.53
2023-04-16T03:31:14.987Z,5.73
2023-04-16T03:33:42.650Z,4.93
2023-04-16T03:36:10.140Z,5.90
2023-04-16T03:38:37.115Z,5.80
2023-04-16T03:41:04.186Z,6.17
2023-04-16T03:43:31.139Z,5.77
2023-04-16T03:45:58.158Z,6.27
2023-04-16T03:48:25.526Z,6.03
2023-04-16T03:50:52.546Z,5.67
2023-04-16T03:53:19.476Z,5.67
2023-04-16T03:55:51.461Z,7.00
2023-04-16T03:58:19.333Z,6.07
2023-04-16T04:00:46.514Z,6.63
2023-04-16T04:03:17.147Z,6.87
2023-04-16T04:05:44.384Z,6.17
2023-04-16T04:08:11.473Z,6.40
2023-04-16T04:10:38.679Z,6.27
2023-04-16T04:13:07.318Z,5.47
2023-04-16T04:15:34.454Z,5.97
2023-04-16T04:18:01.739Z,5.10
2023-04-16T04:20:28.848Z,5.97
2023-04-16T04:22:55.941Z,6.33
2023-04-16T04:25:23.033Z,5.47
2023-04-16T04:27:50.045Z,5.60
2023-04-16T04:30:17.038Z,5.83
2023-04-16T04:32:44.096Z,5.47
2023-04-16T04:35:11.178Z,6.13
2023-04-16T04:37:38.205Z,5.83
2023-04-16T04:40:06.106Z,5.70
2023-04-16T04:42:33.058Z,5.30
2023-04-16T04:45:00.054Z,5.57
2023-04-16T04:47:27.207Z,5.53
2023-04-16T04:49:54.288Z,6.13
2023-04-16T04:52:21.308Z,6.47
2023-04-16T04:54:48.294Z,6.27
2023-04-16T04:57:15.272Z,5.53
2023-04-16T04:59:42.239Z,6.73
2023-04-16T05:02:09.336Z,6.53
2023-04-16T05:04:36.375Z,5.63
2023-04-16T05:07:03.553Z,6.73
2023-04-16T05:09:30.928Z,7.47
2023-04-16T05:11:58.003Z,7.27
2023-04-16T05:14:25.033Z,6.40
2023-04-16T05:16:52.028Z,6.33
2023-04-16T05:19:19.029Z,7.43
2023-04-16T05:21:46.036Z,7.03
2023-04-16T05:24:14.908Z,7.17
2023-04-16T05:26:42.173Z,8.10
2023-04-16T05:29:09.373Z,7.17
2023-04-16T05:31:36.628Z,7.17
2023-04-16T05:34:03.665Z,6.83
2023-04-16T05:36:30.764Z,7.03
2023-04-16T05:38:57.790Z,7.67
2023-04-16T05:41:24.883Z,6.80
2023-04-16T05:43:51.851Z,7.93
2023-04-16T05:46:18.871Z,8.30
2023-04-16T05:48:46.127Z,7.47
2023-04-16T05:51:13.171Z,9.60
2023-04-16T05:53:41.026Z,8.27
2023-04-16T05:56:08.599Z,8.30
2023-04-16T05:58:35.631Z,7.40
2023-04-16T06:01:03.421Z,7.80
2023-04-16T06:03:30.467Z,7.87
2023-04-16T06:05:57.751Z,7.60
2023-04-16T06:08:24.807Z,7.07
2023-04-16T06:10:51.822Z,8.50
2023-04-16T06:13:19.024Z,7.80
2023-04-16T06:15:46.083Z,7.77
2023-04-16T06:18:13.160Z,7.20
2023-04-16T06:20:40.600Z,7.47
2023-04-16T06:23:07.560Z,8.23
2023-04-16T06:25:34.580Z,8.30
2023-04-16T06:28:01.591Z,8.13
2023-04-16T06:30:28.708Z,7.33
2023-04-16T06:32:55.836Z,7.13
2023-04-16T06:35:22.882Z,7.00
2023-04-16T06:37:49.901Z,7.60
2023-04-16T06:40:17.115Z,7.03
2023-04-16T06:42:45.503Z,7.37
2023-04-16T06:45:14.046Z,7.53
2023-04-16T06:47:41.178Z,7.03
2023-04-16T06:50:08.737Z,7.43
2023-04-16T06:52:35.962Z,7.40
2023-04-16T06:55:03.282Z,7.60
2023-04-16T06:57:30.322Z,7.00
2023-04-16T06:59:57.309Z,7.70
2023-04-16T07:02:24.807Z,7.93
2023-04-16T07:04:52.521Z,7.93
2023-04-16T07:07:19.560Z,7.67
2023-04-16T07:09:46.558Z,7.10
2023-04-16T07:12:13.649Z,7.57
2023-04-16T07:14:41.125Z,7.57
2023-04-16T07:17:08.108Z,7.83
2023-04-16T07:19:35.604Z,7.80
2023-04-16T07:22:02.725Z,8.17
2023-04-16T07:24:29.812Z,8.73
2023-04-16T07:26:56.972Z,7.53
2023-04-16T07:29:23.978Z,8.33
2023-04-16T07:31:51.450Z,7.67
2023-04-16T07:34:18.574Z,7.77
2023-04-16T07:36:45.651Z,7.93
2023-04-16T07:39:13.250Z,7.40
2023-04-16T07:41:41.219Z,8.27
2023-04-16T07:44:09.426Z,7.37
2023-04-16T07:46:46.504Z,7.47
2023-04-16T07:49:14.993Z,7.40
2023-04-16T07:51:42.189Z,7.10
2023-04-16T07:54:09.978Z,7.40
2023-04-16T07:56:36.985Z,7.10
2023-04-16T07:59:14.918Z,7.13
2023-04-16T08:01:46.130Z,6.77
2023-04-16T08:04:14.320Z,6.43
2023-04-16T08:06:41.442Z,7.23
2023-04-16T08:09:08.739Z,7.00
2023-04-16T08:11:36.082Z,6.23
2023-04-16T08:14:03.070Z,6.80
2023-04-16T08:16:30.069Z,5.95
2023-04-16T08:18:57.051Z,6.90
2023-04-16T08:21:24.030Z,6.47
2023-04-16T08:23:51.431Z,6.50
2023-04-16T08:26:18.362Z,6.43
2023-04-16T08:28:45.509Z,6.70
2023-04-16T08:31:12.688Z,7.03
2023-04-16T08:33:41.029Z,7.33
2023-04-16T08:36:08.129Z,6.90
2023-04-16T08:38:35.148Z,7.33
2023-04-16T08:41:07.254Z,6.68
2023-04-16T08:43:37.640Z,6.97
2023-04-16T08:46:06.858Z,7.07
2023-04-16T08:48:35.237Z,6.97
2023-04-16T08:51:03.008Z,7.17
2023-04-16T08:53:53.303Z,6.47
2023-04-16T08:56:24.736Z,6.45
2023-04-16T08:58:54.858Z,7.00
2023-04-16T09:01:22.294Z,6.73
2023-04-16T09:03:49.908Z,6.90
2023-04-16T09:06:18.305Z,6.50
2023-04-16T09:08:48.836Z,6.20
2023-04-16T09:11:18.545Z,6.50
2023-04-16T09:13:47.518Z,6.68
2023-04-16T09:16:15.528Z,6.53
2023-04-16T09:18:42.680Z,6.63
2023-04-16T09:21:13.661Z,7.18
2023-04-16T09:23:41.941Z,7.00
2023-04-16T09:26:09.066Z,6.53
2023-04-16T09:28:47.163Z,5.53
2023-04-16T09:31:19.481Z,6.22
2023-04-16T09:34:09.114Z,5.97
2023-04-16T09:36:36.949Z,6.20
2023-04-16T09:39:04.354Z,6.57
2023-04-16T09:41:36.149Z,6.65
2023-04-16T09:44:05.349Z,6.60
2023-04-16T09:46:36.258Z,6.80
2023-04-16T09:49:15.886Z,6.38
2023-04-16T09:51:50.980Z,6.55
2023-04-16T09:54:19.589Z,6.38
2023-04-16T09:56:47.124Z,6.70
2023-04-16T09:59:21.171Z,6.88
2023-04-16T10:02:14.218Z,6.88
2023-04-16T10:04:53.100Z,6.28
2023-04-16T10:07:21.476Z,5.70
2023-04-16T10:09:52.642Z,6.45
2023-04-16T10:12:20.720Z,6.60
2023-04-16T10:14:49.998Z,5.65
2023-04-16T10:17:17.357Z,6.25
2023-04-16T10:19:46.243Z,6.40
2023-04-16T10:22:13.797Z,6.45
2023-04-16T10:24:42.253Z,6.47
2023-04-16T10:27:09.264Z,6.43
2023-04-16T10:29:37.005Z,6.68
2023-04-16T10:32:04.363Z,6.95
2023-04-16T10:34:32.217Z,6.30
2023-04-16T10:36:59.318Z,5.70
2023-04-16T10:39:29.503Z,7.22
2023-04-16T10:42:13.111Z,6.55
2023-04-16T10:44:44.405Z,6.60
2023-04-16T10:47:13.969Z,6.47
2023-04-16T10:49:43.601Z,6.90
2023-04-16T10:52:19.111Z,6.13
2023-04-16T10:54:48.378Z,6.50
2023-04-16T10:57:20.632Z,6.32
2023-04-16T10:59:49.232Z,6.30
2023-04-16T11:02:18.807Z,6.57
2023-04-16T11:04:48.526Z,6.85
2023-04-16T11:07:20.205Z,6.53
2023-04-16T11:09:53.426Z,5.93
2023-04-16T11:12:37.432Z,6.03
2023-04-16T11:15:11.327Z,6.60
2023-04-16T11:17:43.079Z,6.28
2023-04-16T11:20:22.918Z,5.97
2023-04-16T11:22:51.614Z,6.78
2023-04-16T11:25:22.800Z,6.10
2023-04-16T11:27:52.103Z,5.85
2023-04-16T11:30:29.418Z,5.55
2023-04-16T11:32:56.651Z,6.30
2023-04-16T11:35:24.279Z,6.68
2023-04-16T11:37:57.169Z,6.75
2023-04-16T11:40:25.236Z,7.10
2023-04-16T11:42:52.244Z,7.03
2023-04-16T11:45:19.530Z,7.03
2023-04-16T11:47:53.406Z,6.35
2023-04-16T11:50:23.518Z,6.00
2023-04-16T11:52:53.632Z,6.22
2023-04-16T11:55:21.665Z,6.15
2023-04-16T11:57:50.257Z,5.18
2023-04-16T12:00:19.170Z,5.85
2023-04-16T12:02:53.939Z,6.38
2023-04-16T12:05:40.798Z,6.00
2023-04-16T12:08:12.357Z,6.53
2023-04-16T12:10:55.486Z,6.47
2023-04-16T12:13:22.895Z,6.32
2023-04-16T12:15:53.698Z,6.25
2023-04-16T12:18:23.792Z,6.47
2023-04-16T12:20:51.402Z,5.85
2023-04-16T12:23:30.125Z,5.43
2023-04-16T12:26:05.059Z,6.15
2023-04-16T12:28:38.314Z,6.35
2023-04-16T12:31:06.367Z,6.47
2023-04-16T12:33:33.567Z,5.95
2023-04-16T12:36:01.782Z,6.03
2023-04-16T12:38:29.294Z,6.60
2023-04-16T12:40:57.749Z,7.53
2023-04-16T12:43:25.627Z,6.30
2023-04-16T12:45:52.792Z,5.47
2023-04-16T12:48:19.811Z,5.90
2023-04-16T12:50:46.943Z,5.22
2023-04-16T12:53:13.914Z,6.03
2023-04-16T12:55:40.943Z,5.90
2023-04-16T12:58:10.572Z,5.88
2023-04-16T13:00:40.394Z,5.60
2023-04-16T13:03:07.875Z,5.68
2023-04-16T13:05:35.088Z,6.45
2023-04-16T13:08:02.329Z,5.63
2023-04-16T13:10:29.327Z,5.25
2023-04-16T13:12:56.979Z,6.07
2023-04-16T13:15:24.063Z,6.28
2023-04-16T13:17:51.157Z,5.93
2023-04-16T13:20:18.253Z,5.70
2023-04-16T13:22:45.269Z,5.95
2023-04-16T13:25:12.270Z,5.60
2023-04-16T13:27:39.279Z,5.57
2023-04-16T13:30:07.771Z,5.88
2023-04-16T13:32:34.876Z,5.57
2023-04-16T13:35:02.001Z,6.18
2023-04-16T13:37:28.963Z,5.60
2023-04-16T13:39:56.634Z,5.82
2023-04-16T13:42:23.636Z,5.47
2023-04-16T13:44:54.186Z,5.18
2023-04-16T13:47:21.717Z,5.97
2023-04-16T13:49:49.002Z,5.82
2023-04-16T13:52:16.119Z,6.13
2023-04-16T13:54:43.104Z,5.50
2023-04-16T13:57:10.974Z,6.05
2023-04-16T13:59:38.314Z,6.10
2023-04-16T14:02:05.597Z,5.68
2023-04-16T14:04:32.609Z,5.32
2023-04-16T14:06:59.609Z,5.57
2023-04-16T14:09:27.297Z,5.40
2023-04-16T14:11:55.330Z,5.65
2023-04-16T14:14:22.399Z,5.50
2023-04-16T14:16:49.575Z,5.45
2023-04-16T14:19:16.675Z,5.78
2023-04-16T14:21:43.696Z,4.80
2023-04-16T14:24:10.761Z,5.50
2023-04-16T14:26:37.783Z,4.85
2023-04-16T14:29:06.299Z,5.43
2023-04-16T14:31:33.586Z,5.82
2023-04-16T14:34:00.749Z,5.63
2023-04-16T14:36:28.020Z,5.13
2023-04-16T14:38:55.086Z,5.63
2023-04-16T14:41:22.057Z,5.18
2023-04-16T14:43:49.100Z,5.75
2023-04-16T14:46:19.411Z,5.90
2023-04-16T14:48:46.578Z,6.72
2023-04-16T14:51:13.567Z,5.85
2023-04-16T14:53:40.762Z,7.75
2023-04-16T14:56:07.786Z,5.70
2023-04-16T14:58:37.299Z,6.13
2023-04-16T15:01:06.174Z,6.40
2023-04-16T15:03:33.477Z,6.65
2023-04-16T15:06:01.895Z,5.28
2023-04-16T15:08:28.947Z,5.68
2023-04-16T15:10:55.954Z,6.07
2023-04-16T15:13:22.940Z,6.07
2023-04-16T15:15:50.270Z,7.85
2023-04-16T15:18:17.377Z,7.45
2023-04-16T15:20:44.732Z,6.45
2023-04-16T15:23:11.748Z,5.85
2023-04-16T15:25:38.731Z,5.25
2023-04-16T15:28:06.520Z,5.10
2023-04-16T15:30:33.685Z,4.72
2023-04-16T15:33:01.095Z,6.00
2023-04-16T15:35:28.324Z,6.50
2023-04-16T15:37:55.480Z,6.40
2023-04-16T15:40:22.628Z,5.65
2023-04-16T15:42:49.620Z,5.47
2023-04-16T15:45:16.904Z,5.13
2023-04-16T15:47:47.949Z,6.25
2023-04-16T15:50:15.335Z,5.80
2023-04-16T15:52:42.484Z,5.28
2023-04-16T15:55:10.125Z,5.13
2023-04-16T15:57:37.111Z,5.40
2023-04-16T16:00:13.481Z,6.22
2023-04-16T16:02:41.892Z,5.80
2023-04-16T16:05:14.271Z,5.82
2023-04-16T16:07:42.709Z,6.30
2023-04-16T16:10:11.598Z,8.07
2023-04-16T16:12:39.535Z,12.55
2023-04-16T16:15:07.717Z,12.30
2023-04-16T16:17:34.830Z,9.10
2023-04-16T16:20:01.968Z,8.98
2023-04-16T16:22:29.994Z,6.40
2023-04-16T16:24:57.948Z,6.82
2023-04-16T16:27:25.065Z,7.35
2023-04-16T16:29:52.268Z,6.72
2023-04-16T16:32:19.400Z,7.47
2023-04-16T16:34:46.422Z,6.50
2023-04-16T16:37:13.457Z,6.85
2023-04-16T16:39:40.551Z,7.20
2023-04-16T16:42:09.236Z,7.85
2023-04-16T16:44:36.751Z,6.53
2023-04-16T16:47:03.995Z,6.50
2023-04-16T16:49:31.030Z,6.93
2023-04-16T16:51:58.050Z,7.50
2023-04-16T16:54:25.304Z,6.78
2023-04-16T16:56:53.142Z,6.97
2023-04-16T16:59:20.306Z,6.47
2023-04-16T17:01:47.290Z,6.90
2023-04-16T17:04:14.568Z,7.10
2023-04-16T17:06:41.768Z,7.25
2023-04-16T17:09:09.360Z,6.53
2023-04-16T17:11:36.782Z,6.72
2023-04-16T17:14:03.848Z,7.15
2023-04-16T17:16:30.897Z,7.20
2023-04-16T17:18:59.317Z,6.97
2023-04-16T17:21:26.294Z,7.28
2023-04-16T17:23:54.519Z,7.88
2023-04-16T17:26:22.420Z,7.63
2023-04-16T17:28:49.695Z,7.85
2023-04-16T17:31:16.971Z,8.27
2023-04-16T17:33:44.478Z,8.30
2023-04-16T17:36:11.653Z,7.95
2023-04-16T17:38:38.701Z,8.48
2023-04-16T17:41:05.757Z,8.13
2023-04-16T17:43:32.774Z,8.60
2023-04-16T17:45:59.832Z,8.75
2023-04-16T17:48:26.857Z,8.43
2023-04-16T17:50:53.945Z,8.65
2023-04-16T17:53:20.998Z,8.68
2023-04-16T17:55:56.515Z,8.40
2023-04-16T17:58:26.366Z,8.73
2023-04-16T18:00:53.351Z,9.10
2023-04-16T18:03:22.102Z,9.05
2023-04-16T18:05:49.386Z,8.52
2023-04-16T18:08:16.559Z,9.18
2023-04-16T18:10:43.574Z,8.85
2023-04-16T18:13:10.589Z,10.18
2023-04-16T18:15:38.398Z,9.30
2023-04-16T18:18:06.005Z,9.10
2023-04-16T18:20:33.173Z,9.40
2023-04-16T18:23:01.258Z,9.60
2023-04-16T18:25:34.433Z,10.48
2023-04-16T18:28:03.825Z,9.88
2023-04-16T18:30:31.293Z,9.40
2023-04-16T18:35:28.967Z,8.50
2023-04-16T18:37:55.934Z,9.48
2023-04-16T18:40:25.208Z,9.27
2023-04-16T18:42:52.185Z,8.70
2023-04-16T18:45:21.940Z,8.88
2023-04-16T18:47:50.317Z,40.65
2023-04-16T18:50:17.716Z,52.15
2023-04-16T18:52:44.756Z,11.38
2023-04-16T18:55:11.744Z,10.02
2023-04-16T18:57:38.740Z,9.52
2023-04-16T19:00:12.952Z,8.70
2023-04-16T19:02:41.041Z,8.95
2023-04-16T19:05:09.737Z,10.23
2023-04-16T19:07:37.641Z,10.13
2023-04-16T19:10:05.838Z,9.63
2023-04-16T19:12:33.056Z,9.20
2023-04-16T19:15:00.716Z,9.15
2023-04-16T19:17:27.749Z,9.85
2023-04-16T19:19:54.751Z,10.10
2023-04-16T19:22:21.885Z,10.50
2023-04-16T19:24:48.922Z,9.35
2023-04-16T19:27:16.315Z,10.13
2023-04-16T19:29:43.590Z,10.63
2023-04-16T19:32:10.813Z,10.00
2023-04-16T19:34:38.586Z,9.80
2023-04-16T19:37:05.979Z,10.93
2023-04-16T19:39:33.271Z,10.83
2023-04-16T19:42:02.092Z,10.23
2023-04-16T19:44:29.516Z,9.90
2023-04-16T19:46:56.627Z,9.83
2023-04-16T19:49:25.379Z,10.50
2023-04-16T19:51:52.660Z,10.10
2023-04-16T19:54:19.748Z,10.00
2023-04-16T19:56:49.359Z,10.65
2023-04-16T19:59:16.363Z,9.77
2023-04-16T20:01:43.517Z,11.10
2023-04-16T20:04:10.687Z,11.70
2023-04-16T20:06:37.973Z,10.57
2023-04-16T20:09:05.018Z,10.90
2023-04-16T20:11:32.001Z,10.80
2023-04-16T20:14:00.993Z,11.73
2023-04-16T20:16:28.116Z,10.83
2023-04-16T20:18:55.151Z,10.83
2023-04-16T20:21:22.146Z,11.63
2023-04-16T20:23:49.273Z,11.97
2023-04-16T20:26:18.466Z,10.67
2023-04-16T20:28:46.016Z,12.40
2023-04-16T20:31:13.307Z,11.23
2023-04-16T20:33:40.529Z,11.17
2023-04-16T20:36:08.164Z,11.13
2023-04-16T20:38:35.768Z,11.30
2023-04-16T20:41:20.371Z,11.47
2023-04-16T20:43:50.308Z,12.10
2023-04-16T20:46:17.865Z,11.83
2023-04-16T20:48:45.021Z,11.33
2023-04-16T20:51:12.265Z,10.93
2023-04-16T20:53:39.250Z,11.63
2023-04-16T20:56:07.010Z,11.63
2023-04-16T20:58:34.093Z,11.30
2023-04-16T21:01:01.087Z,11.17
2023-04-16T21:03:28.257Z,11.07
2023-04-16T21:05:55.923Z,11.80
2023-04-16T21:08:24.300Z,11.77
2023-04-16T21:10:51.551Z,12.60
2023-04-16T21:13:21.006Z,12.17
2023-04-16T21:15:48.207Z,12.53
2023-04-16T21:18:17.035Z,11.90
2023-04-16T21:20:44.347Z,12.47
2023-04-16T21:23:11.332Z,11.20
2023-04-16T21:25:38.280Z,12.23
2023-04-16T21:28:06.308Z,11.53
2023-04-16T21:30:33.411Z,12.23
2023-04-16T21:33:00.572Z,12.63
2023-04-16T21:35:27.721Z,12.03
2023-04-16T21:37:54.800Z,11.73
2023-04-16T21:40:21.856Z,12.27
2023-04-16T21:42:49.072Z,11.97
2023-04-16T21:45:16.276Z,11.40
2023-04-16T21:47:43.348Z,12.33
2023-04-16T21:50:11.152Z,11.10
2023-04-16T21:52:40.713Z,12.13
2023-04-16T21:55:09.644Z,11.60
2023-04-16T21:57:36.684Z,11.67
2023-04-16T22:00:09.189Z,12.73
2023-04-16T22:02:36.406Z,12.33
2023-04-16T22:05:06.311Z,11.63
2023-04-16T22:07:33.340Z,11.60
2023-04-16T22:10:00.430Z,12.70
2023-04-16T22:12:28.473Z,12.73
2023-04-16T22:15:02.390Z,13.13
2023-04-16T22:17:30.494Z,11.97
2023-04-16T22:20:00.456Z,11.73
2023-04-16T22:22:27.447Z,11.93
2023-04-16T22:24:54.505Z,13.97
2023-04-16T22:27:22.005Z,12.93
2023-04-16T22:29:49.021Z,13.30
2023-04-16T22:32:16.494Z,12.67
2023-04-16T22:34:43.585Z,12.67
2023-04-16T22:37:10.893Z,13.13
2023-04-16T22:39:37.885Z,13.77
2023-04-16T22:42:04.944Z,12.93
2023-04-16T22:44:32.001Z,13.00
2023-04-16T22:46:59.238Z,13.97
2023-04-16T22:49:26.637Z,12.70
2023-04-16T22:51:53.638Z,13.40
2023-04-16T22:54:20.852Z,13.30
2023-04-16T22:56:48.613Z,12.90
2023-04-16T22:59:15.714Z,12.60
2023-04-16T23:01:42.781Z,13.03
2023-04-16T23:04:09.921Z,12.63
2023-04-16T23:06:36.959Z,13.43
2023-04-16T23:09:05.143Z,13.40
2023-04-16T23:11:32.209Z,12.53
2023-04-16T23:13:59.287Z,13.17
2023-04-16T23:16:27.247Z,14.13
2023-04-16T23:18:54.788Z,13.03
2023-04-16T23:21:22.988Z,12.77
2023-04-16T23:23:50.267Z,12.77
2023-04-16T23:26:17.511Z,12.97
2023-04-16T23:28:44.592Z,12.23
2023-04-16T23:31:11.589Z,13.07
2023-04-16T23:33:38.630Z,12.73
2023-04-16T23:36:06.118Z,13.23
2023-04-16T23:38:33.116Z,12.13
2023-04-16T23:41:00.260Z,12.37
2023-04-16T23:43:27.235Z,14.10
2023-04-16T23:45:54.279Z,13.00
2023-04-16T23:48:21.327Z,12.37
2023-04-16T23:50:48.360Z,13.17
2023-04-16T23:53:15.694Z,11.63
2023-04-16T23:55:42.673Z,13.07
2023-04-16T23:58:09.624Z,13.03
